MMMZ/MZT METAR and TAF weather

Enter ICAO airport designator
Station Type Date Time Source
MMMZ METAR 2022/08/12 15:42 UTC NOAA

MMMZ 121542Z 00000KT 15SM FEW035 BKN090 30/23 A2991 RMK 8/470


Station Type Date Time Source
MMMZ Decoded METAR 2022/08/12 15:42 UTC NOAA

Mazatlan / G. Buelna, Mexico (MMMZ) 23-10N 106-16W
Aug 12, 2022 - 11:42 AM EDT / 2022.08.12 1542 UTC
Wind: Calm:0
Visibility: 15 mile(s):0
Sky conditions: mostly cloudy
Temperature: 86 F (30 C)
Heat index: 93.4 F (34.1 C):1
Dew Point: 73 F (23 C)
Relative Humidity: 66%
Pressure (altimeter): 29.91 in. Hg (1012 hPa)
ob: MMMZ 121542Z 00000KT 15SM FEW035 BKN090 30/23 A2991 RMK 8/470
cycle: 15

Station Type Date Time Source
MMMZ TAF 2022/08/12 12:34 UTC NOAA

TAF MMMZ 121027Z 1212/1318 03005KT P6SM SCT020 BKN200 TX32/1220Z TN24/1212Z
FM121600 23010KT P6SM SCT020
FM130300 03005KT P6SM SCT020 BKN200
FM130600 03005KT P6SM SCT020CB BKN080
TEMPO 1306/1310 5SM TSRA BKN015CB
FM131600 23010KT P6SM SCT020 BKN200

Example: see airport list